Pagrindinis puslapis
METAR-TAF:

METAR-TAF

Oro uostai :

Kingstonas, Jamaika

platuma: 17-56N, ilguma: 076-47W, Aukštis: 3 m

Dabartinis oras

Ataskaita buvo paskelbta 59 minutes, ne 00:00 UTC
Vėjas 4 kt iš Pietų/Pietvakarių
Temperatūra 28°C
Drėgmė 74%
Slėgis 1012 hPa
Matomumas 10 km arba daugiau
Mažai debesys ne aukštis 2400 ft

METAR: MKJP 100000Z 21004KT 9999 FEW024 28/23 Q1012

Laikas: 19:59 (00:59 UTC)

Prognozė

Ataskaita buvo paskelbta 1 valandą ir 44 minutes, ne 23:15 UTC
Prognozė galioja nuo 10 metu 00 UTC su 10 metu 24 UTC
Vėjas 5 kt iš Vakarų/Šiaurės Vakarų
Matomumas 10 km arba daugiau
Mažai debesys ne aukštis 2400 ft
Tapsmas
nuo 10 metu 03 UTC su 10 metu 05 UTC
Vėjas 4 kt iš Šiaurės
Tapsmas
nuo 10 metu 15 UTC su 10 metu 17 UTC
Vėjas 10 kt iš Pietų

TAF: MKJP 092315Z 1000/1024 30005KT 9999 FEW024 BECMG 1003/1005 35004KT BECMG 1015/1017 18010KT

Orai ataskaitas ir orų prognozės (METAR, TAF).

turimą stotys yra geltonos ir raudonos taškus žemėlapyje.

Perkelti pele per norėdami pamatyti stoties vardą.

Tada spustelėkite, norėdami matyti oro stebėjimo ir prognozės.

Norėdami pakeisti žemėlapį: spustelėkite ant žalios mygtukų su juodo kryžiaus žemyn,; žalią mygtuką su brūkšneliu, jei norite nutolinti; arba žalių rodyklių gretimoms žemėlapius.


METAR-TAF: